sensor_id;sensor_type;location;lat;lon;timestamp;pressure;altitude;pressure_sealevel;temperature;humidity
64115;BME280;62188;35.640;139.748;2023-04-23T00:01:15;102096.39;;;17.95;19.22
64115;BME280;62188;35.640;139.748;2023-04-23T00:03:41;102098.80;;;18.02;19.53
64115;BME280;62188;35.640;139.748;2023-04-23T00:06:08;102089.34;;;18.09;20.30
64115;BME280;62188;35.640;139.748;2023-04-23T00:08:33;102087.34;;;17.94;19.48
64115;BME280;62188;35.640;139.748;2023-04-23T00:10:59;102086.81;;;18.34;19.60
64115;BME280;62188;35.640;139.748;2023-04-23T00:13:25;102089.20;;;18.57;19.92
64115;BME280;62188;35.640;139.748;2023-04-23T00:15:49;102090.84;;;18.55;19.47
64115;BME280;62188;35.640;139.748;2023-04-23T00:18:14;102089.77;;;18.34;18.95
64115;BME280;62188;35.640;139.748;2023-04-23T00:20:39;102089.69;;;18.55;19.15
64115;BME280;62188;35.640;139.748;2023-04-23T00:23:05;102079.19;;;18.41;18.76
64115;BME280;62188;35.640;139.748;2023-04-23T00:25:31;102082.85;;;18.11;18.64
64115;BME280;62188;35.640;139.748;2023-04-23T00:27:57;102084.06;;;18.44;18.89
64115;BME280;62188;35.640;139.748;2023-04-23T00:30:22;102083.81;;;18.29;18.95
64115;BME280;62188;35.640;139.748;2023-04-23T00:32:47;102084.43;;;18.48;18.58
64115;BME280;62188;35.640;139.748;2023-04-23T00:35:13;102085.46;;;18.25;18.43
64115;BME280;62188;35.640;139.748;2023-04-23T00:37:39;102083.57;;;18.38;18.26
64115;BME280;62188;35.640;139.748;2023-04-23T00:40:05;102085.54;;;18.46;18.44
64115;BME280;62188;35.640;139.748;2023-04-23T00:42:30;102086.50;;;18.63;18.27
64115;BME280;62188;35.640;139.748;2023-04-23T00:44:56;102086.50;;;18.57;18.34
64115;BME280;62188;35.640;139.748;2023-04-23T00:47:21;102081.72;;;18.67;18.68
64115;BME280;62188;35.640;139.748;2023-04-23T00:49:47;102085.08;;;18.65;18.57
64115;BME280;62188;35.640;139.748;2023-04-23T00:52:12;102081.22;;;18.53;18.11
64115;BME280;62188;35.640;139.748;2023-04-23T00:54:37;102085.14;;;18.67;18.26
64115;BME280;62188;35.640;139.748;2023-04-23T00:57:04;102088.95;;;18.88;18.71
64115;BME280;62188;35.640;139.748;2023-04-23T00:59:29;102086.85;;;18.60;18.47
64115;BME280;62188;35.640;139.748;2023-04-23T01:01:54;102082.44;;;18.86;18.51
64115;BME280;62188;35.640;139.748;2023-04-23T01:04:20;102087.25;;;18.71;18.46
64115;BME280;62188;35.640;139.748;2023-04-23T01:06:46;102094.09;;;19.09;18.21
64115;BME280;62188;35.640;139.748;2023-04-23T01:09:12;102099.06;;;19.12;17.48
64115;BME280;62188;35.640;139.748;2023-04-23T01:11:41;102095.03;;;18.99;16.69
64115;BME280;62188;35.640;139.748;2023-04-23T01:14:02;102101.51;;;18.73;16.92
64115;BME280;62188;35.640;139.748;2023-04-23T01:16:27;102099.86;;;18.59;16.83
64115;BME280;62188;35.640;139.748;2023-04-23T01:18:52;102099.25;;;18.72;17.26
64115;BME280;62188;35.640;139.748;2023-04-23T01:21:18;102101.25;;;18.90;17.80
64115;BME280;62188;35.640;139.748;2023-04-23T01:23:44;102095.08;;;19.10;17.52
64115;BME280;62188;35.640;139.748;2023-04-23T01:26:09;102094.43;;;19.15;17.39
64115;BME280;62188;35.640;139.748;2023-04-23T01:28:35;102085.58;;;19.27;17.40
64115;BME280;62188;35.640;139.748;2023-04-23T01:31:01;102086.13;;;19.47;17.02
64115;BME280;62188;35.640;139.748;2023-04-23T01:33:26;102084.37;;;19.66;17.17
64115;BME280;62188;35.640;139.748;2023-04-23T01:35:52;102084.04;;;20.10;17.68
64115;BME280;62188;35.640;139.748;2023-04-23T01:38:18;102077.12;;;20.08;17.14
64115;BME280;62188;35.640;139.748;2023-04-23T01:40:42;102077.59;;;19.98;16.74
64115;BME280;62188;35.640;139.748;2023-04-23T01:43:08;102078.58;;;19.84;17.17
64115;BME280;62188;35.640;139.748;2023-04-23T01:45:33;102073.91;;;19.75;17.29
64115;BME280;62188;35.640;139.748;2023-04-23T01:47:59;102070.04;;;19.75;17.15
64115;BME280;62188;35.640;139.748;2023-04-23T01:50:25;102068.04;;;19.97;17.65
64115;BME280;62188;35.640;139.748;2023-04-23T01:52:50;102060.65;;;20.23;17.62
64115;BME280;62188;35.640;139.748;2023-04-23T01:55:15;102054.41;;;20.13;17.08
64115;BME280;62188;35.640;139.748;2023-04-23T01:57:42;102048.73;;;19.87;16.87
64115;BME280;62188;35.640;139.748;2023-04-23T02:00:10;102043.21;;;19.80;16.82
64115;BME280;62188;35.640;139.748;2023-04-23T02:02:32;102036.53;;;19.94;17.01
64115;BME280;62188;35.640;139.748;2023-04-23T02:04:59;102032.27;;;20.40;17.05
64115;BME280;62188;35.640;139.748;2023-04-23T02:07:23;102022.74;;;20.63;17.03
64115;BME280;62188;35.640;139.748;2023-04-23T02:09:49;102019.55;;;20.73;16.89
64115;BME280;62188;35.640;139.748;2023-04-23T02:12:15;102014.96;;;20.96;16.56
64115;BME280;62188;35.640;139.748;2023-04-23T02:14:41;102006.83;;;21.30;16.43
64115;BME280;62188;35.640;139.748;2023-04-23T02:17:06;102000.62;;;21.48;16.31
64115;BME280;62188;35.640;139.748;2023-04-23T02:19:31;101995.96;;;21.59;15.83
64115;BME280;62188;35.640;139.748;2023-04-23T02:21:57;101982.48;;;21.92;15.62
64115;BME280;62188;35.640;139.748;2023-04-23T02:24:22;101975.22;;;21.98;16.22
64115;BME280;62188;35.640;139.748;2023-04-23T02:26:47;101976.24;;;22.03;16.72
64115;BME280;62188;35.640;139.748;2023-04-23T02:29:13;101975.68;;;22.21;15.43
64115;BME280;62188;35.640;139.748;2023-04-23T02:31:39;101969.84;;;22.49;15.47
64115;BME280;62188;35.640;139.748;2023-04-23T02:34:05;101966.33;;;22.48;16.31
64115;BME280;62188;35.640;139.748;2023-04-23T02:36:29;101960.40;;;22.22;17.68
64115;BME280;62188;35.640;139.748;2023-04-23T02:38:55;101953.10;;;22.20;15.78
64115;BME280;62188;35.640;139.748;2023-04-23T02:41:20;101945.98;;;22.00;14.42
64115;BME280;62188;35.640;139.748;2023-04-23T02:43:46;101946.67;;;21.82;15.67
64115;BME280;62188;35.640;139.748;2023-04-23T02:46:12;101940.68;;;22.41;16.34
64115;BME280;62188;35.640;139.748;2023-04-23T02:48:39;101937.09;;;22.02;15.57
64115;BME280;62188;35.640;139.748;2023-04-23T02:51:03;101936.98;;;21.92;15.50
64115;BME280;62188;35.640;139.748;2023-04-23T02:53:28;101938.58;;;22.20;15.32
64115;BME280;62188;35.640;139.748;2023-04-23T02:55:54;101935.79;;;22.23;14.62
64115;BME280;62188;35.640;139.748;2023-04-23T02:58:19;101932.72;;;22.14;14.92
64115;BME280;62188;35.640;139.748;2023-04-23T03:00:44;101925.36;;;22.03;15.42
64115;BME280;62188;35.640;139.748;2023-04-23T03:03:10;101919.37;;;22.47;14.41
64115;BME280;62188;35.640;139.748;2023-04-23T03:05:35;101911.73;;;22.66;15.10
64115;BME280;62188;35.640;139.748;2023-04-23T03:08:01;101911.56;;;21.99;14.80
64115;BME280;62188;35.640;139.748;2023-04-23T03:10:26;101919.12;;;22.37;14.82
64115;BME280;62188;35.640;139.748;2023-04-23T03:12:51;101918.89;;;21.93;14.47
64115;BME280;62188;35.640;139.748;2023-04-23T03:15:17;101910.97;;;22.09;13.91
64115;BME280;62188;35.640;139.748;2023-04-23T03:17:43;101903.68;;;21.92;14.22
64115;BME280;62188;35.640;139.748;2023-04-23T03:20:10;101894.69;;;21.71;14.21
64115;BME280;62188;35.640;139.748;2023-04-23T03:22:34;101889.50;;;21.70;14.06
64115;BME280;62188;35.640;139.748;2023-04-23T03:24:59;101891.00;;;21.71;13.95
64115;BME280;62188;35.640;139.748;2023-04-23T03:27:25;101889.09;;;21.97;13.65
64115;BME280;62188;35.640;139.748;2023-04-23T03:29:51;101887.00;;;21.41;13.50
64115;BME280;62188;35.640;139.748;2023-04-23T03:32:16;101881.13;;;21.86;13.18
64115;BME280;62188;35.640;139.748;2023-04-23T03:34:41;101883.90;;;22.29;13.67
64115;BME280;62188;35.640;139.748;2023-04-23T03:37:07;101872.22;;;22.44;13.69
64115;BME280;62188;35.640;139.748;2023-04-23T03:39:32;101869.60;;;22.44;14.71
64115;BME280;62188;35.640;139.748;2023-04-23T03:41:58;101870.23;;;22.19;15.53
64115;BME280;62188;35.640;139.748;2023-04-23T03:44:24;101869.58;;;21.95;15.87
64115;BME280;62188;35.640;139.748;2023-04-23T03:46:49;101867.61;;;21.63;15.76
64115;BME280;62188;35.640;139.748;2023-04-23T03:49:15;101862.93;;;21.57;15.94
64115;BME280;62188;35.640;139.748;2023-04-23T03:51:40;101864.29;;;21.41;15.85
64115;BME280;62188;35.640;139.748;2023-04-23T03:54:05;101866.87;;;21.56;16.55
64115;BME280;62188;35.640;139.748;2023-04-23T03:56:31;101868.38;;;21.67;17.75
64115;BME280;62188;35.640;139.748;2023-04-23T03:58:57;101865.86;;;21.55;18.30
64115;BME280;62188;35.640;139.748;2023-04-23T04:01:22;101865.56;;;21.64;18.39
64115;BME280;62188;35.640;139.748;2023-04-23T04:03:47;101861.42;;;21.37;18.29
64115;BME280;62188;35.640;139.748;2023-04-23T04:06:13;101858.91;;;21.40;18.56
64115;BME280;62188;35.640;139.748;2023-04-23T04:08:38;101856.63;;;21.69;18.21
64115;BME280;62188;35.640;139.748;2023-04-23T04:11:04;101851.41;;;21.87;18.06
64115;BME280;62188;35.640;139.748;2023-04-23T04:13:29;101846.13;;;21.67;17.99
64115;BME280;62188;35.640;139.748;2023-04-23T04:15:55;101839.56;;;21.77;18.13
64115;BME280;62188;35.640;139.748;2023-04-23T04:18:20;101838.98;;;21.90;17.41
64115;BME280;62188;35.640;139.748;2023-04-23T04:20:46;101840.10;;;21.82;17.54
64115;BME280;62188;35.640;139.748;2023-04-23T04:23:11;101836.40;;;21.59;17.27
64115;BME280;62188;35.640;139.748;2023-04-23T04:25:37;101835.81;;;21.39;17.56
64115;BME280;62188;35.640;139.748;2023-04-23T04:28:02;101832.13;;;21.20;17.54
64115;BME280;62188;35.640;139.748;2023-04-23T04:30:27;101827.10;;;21.06;17.59
64115;BME280;62188;35.640;139.748;2023-04-23T04:32:53;101833.47;;;20.69;17.41
64115;BME280;62188;35.640;139.748;2023-04-23T04:35:18;101828.26;;;20.61;17.72
64115;BME280;62188;35.640;139.748;2023-04-23T04:37:44;101824.83;;;20.70;18.38
64115;BME280;62188;35.640;139.748;2023-04-23T04:40:11;101823.71;;;20.27;18.71
64115;BME280;62188;35.640;139.748;2023-04-23T04:42:35;101819.89;;;20.09;19.14
64115;BME280;62188;35.640;139.748;2023-04-23T04:45:01;101819.15;;;20.15;19.62
64115;BME280;62188;35.640;139.748;2023-04-23T04:47:26;101818.67;;;20.01;19.96
64115;BME280;62188;35.640;139.748;2023-04-23T04:49:52;101824.46;;;19.76;19.86
64115;BME280;62188;35.640;139.748;2023-04-23T04:52:17;101824.87;;;19.67;19.92
64115;BME280;62188;35.640;139.748;2023-04-23T04:54:43;101818.20;;;19.56;19.86
64115;BME280;62188;35.640;139.748;2023-04-23T04:57:09;101811.25;;;19.53;19.96
64115;BME280;62188;35.640;139.748;2023-04-23T04:59:34;101810.64;;;19.32;20.50
64115;BME280;62188;35.640;139.748;2023-04-23T05:02:00;101805.17;;;19.28;20.32
64115;BME280;62188;35.640;139.748;2023-04-23T05:04:25;101809.05;;;19.52;20.16
64115;BME280;62188;35.640;139.748;2023-04-23T05:06:51;101799.72;;;19.20;20.28
64115;BME280;62188;35.640;139.748;2023-04-23T05:09:16;101804.07;;;18.96;20.50
64115;BME280;62188;35.640;139.748;2023-04-23T05:11:43;101803.83;;;18.95;19.77
64115;BME280;62188;35.640;139.748;2023-04-23T05:14:07;101800.33;;;18.64;19.64
64115;BME280;62188;35.640;139.748;2023-04-23T05:16:33;101796.92;;;18.81;19.50
64115;BME280;62188;35.640;139.748;2023-04-23T05:18:58;101797.74;;;19.04;19.14
64115;BME280;62188;35.640;139.748;2023-04-23T05:21:24;101788.63;;;18.90;19.75
64115;BME280;62188;35.640;139.748;2023-04-23T05:23:50;101784.37;;;19.23;20.32
64115;BME280;62188;35.640;139.748;2023-04-23T05:26:15;101787.94;;;19.36;20.25
64115;BME280;62188;35.640;139.748;2023-04-23T05:28:41;101793.72;;;19.28;20.64
64115;BME280;62188;35.640;139.748;2023-04-23T05:31:06;101787.25;;;19.21;20.94
64115;BME280;62188;35.640;139.748;2023-04-23T05:33:32;101787.11;;;19.22;20.67
64115;BME280;62188;35.640;139.748;2023-04-23T05:35:57;101782.19;;;19.13;20.18
64115;BME280;62188;35.640;139.748;2023-04-23T05:38:23;101778.53;;;19.28;19.98
64115;BME280;62188;35.640;139.748;2023-04-23T05:40:49;101777.86;;;19.22;19.83
64115;BME280;62188;35.640;139.748;2023-04-23T05:43:14;101775.24;;;19.27;19.54
64115;BME280;62188;35.640;139.748;2023-04-23T05:45:40;101770.96;;;19.29;19.35
64115;BME280;62188;35.640;139.748;2023-04-23T05:48:05;101770.14;;;19.50;19.50
64115;BME280;62188;35.640;139.748;2023-04-23T05:50:31;101770.29;;;19.34;18.98
64115;BME280;62188;35.640;139.748;2023-04-23T05:52:56;101772.30;;;19.36;18.61
64115;BME280;62188;35.640;139.748;2023-04-23T05:55:22;101774.22;;;19.42;18.91
64115;BME280;62188;35.640;139.748;2023-04-23T05:57:48;101768.67;;;19.47;19.80
64115;BME280;62188;35.640;139.748;2023-04-23T06:00:14;101770.25;;;19.29;19.59
64115;BME280;62188;35.640;139.748;2023-04-23T06:02:39;101765.37;;;19.11;19.62
64115;BME280;62188;35.640;139.748;2023-04-23T06:05:05;101766.58;;;19.05;19.34
64115;BME280;62188;35.640;139.748;2023-04-23T06:07:30;101756.93;;;18.79;19.20
64115;BME280;62188;35.640;139.748;2023-04-23T06:09:56;101760.58;;;18.78;19.20
64115;BME280;62188;35.640;139.748;2023-04-23T06:12:21;101761.04;;;19.04;18.35
64115;BME280;62188;35.640;139.748;2023-04-23T06:14:47;101765.01;;;18.48;19.71
64115;BME280;62188;35.640;139.748;2023-04-23T06:17:12;101757.71;;;18.46;19.78
64115;BME280;62188;35.640;139.748;2023-04-23T06:19:38;101754.73;;;18.34;19.64
64115;BME280;62188;35.640;139.748;2023-04-23T06:22:04;101751.23;;;18.97;20.08
64115;BME280;62188;35.640;139.748;2023-04-23T06:24:29;101752.54;;;18.76;20.81
64115;BME280;62188;35.640;139.748;2023-04-23T06:26:54;101745.20;;;18.83;20.89
64115;BME280;62188;35.640;139.748;2023-04-23T06:29:20;101744.84;;;19.08;21.04
64115;BME280;62188;35.640;139.748;2023-04-23T06:31:46;101746.85;;;18.89;20.68
64115;BME280;62188;35.640;139.748;2023-04-23T06:34:11;101750.86;;;18.94;20.59
64115;BME280;62188;35.640;139.748;2023-04-23T06:36:37;101759.80;;;18.61;20.62
64115;BME280;62188;35.640;139.748;2023-04-23T06:39:02;101743.46;;;18.48;20.29
64115;BME280;62188;35.640;139.748;2023-04-23T06:41:27;101743.38;;;18.47;19.74
64115;BME280;62188;35.640;139.748;2023-04-23T06:43:53;101742.16;;;18.47;19.52
64115;BME280;62188;35.640;139.748;2023-04-23T06:46:19;101738.53;;;18.55;19.32
64115;BME280;62188;35.640;139.748;2023-04-23T06:48:45;101728.78;;;18.67;19.68
64115;BME280;62188;35.640;139.748;2023-04-23T06:51:10;101733.71;;;18.91;20.12
64115;BME280;62188;35.640;139.748;2023-04-23T06:53:35;101733.70;;;18.72;20.21
64115;BME280;62188;35.640;139.748;2023-04-23T06:56:01;101734.57;;;18.97;19.58
64115;BME280;62188;35.640;139.748;2023-04-23T06:58:26;101731.52;;;18.70;19.46
64115;BME280;62188;35.640;139.748;2023-04-23T07:00:52;101725.92;;;18.95;19.62
64115;BME280;62188;35.640;139.748;2023-04-23T07:03:18;101737.21;;;19.05;19.41
64115;BME280;62188;35.640;139.748;2023-04-23T07:05:44;101734.18;;;18.89;19.22
64115;BME280;62188;35.640;139.748;2023-04-23T07:08:08;101730.55;;;18.95;18.28
64115;BME280;62188;35.640;139.748;2023-04-23T07:10:34;101722.68;;;19.07;18.18
64115;BME280;62188;35.640;139.748;2023-04-23T07:12:59;101719.31;;;19.24;18.39
64115;BME280;62188;35.640;139.748;2023-04-23T07:15:25;101715.68;;;19.38;18.51
64115;BME280;62188;35.640;139.748;2023-04-23T07:17:51;101713.02;;;19.46;18.42
64115;BME280;62188;35.640;139.748;2023-04-23T07:20:16;101709.50;;;19.34;17.55
64115;BME280;62188;35.640;139.748;2023-04-23T07:22:44;101709.78;;;19.64;17.55
64115;BME280;62188;35.640;139.748;2023-04-23T07:25:08;101719.69;;;19.26;17.44
64115;BME280;62188;35.640;139.748;2023-04-23T07:27:33;101718.75;;;19.37;17.48
64115;BME280;62188;35.640;139.748;2023-04-23T07:29:58;101714.75;;;19.44;17.48
64115;BME280;62188;35.640;139.748;2023-04-23T07:32:24;101716.96;;;19.42;17.61
64115;BME280;62188;35.640;139.748;2023-04-23T07:34:50;101715.03;;;19.38;17.87
64115;BME280;62188;35.640;139.748;2023-04-23T07:37:15;101718.46;;;19.37;17.99
64115;BME280;62188;35.640;139.748;2023-04-23T07:39:41;101713.23;;;19.67;18.01
64115;BME280;62188;35.640;139.748;2023-04-23T07:42:06;101706.26;;;19.59;17.62
64115;BME280;62188;35.640;139.748;2023-04-23T07:44:32;101710.80;;;19.72;17.87
64115;BME280;62188;35.640;139.748;2023-04-23T07:46:57;101716.66;;;19.57;17.66
64115;BME280;62188;35.640;139.748;2023-04-23T07:49:22;101715.97;;;19.40;17.78
64115;BME280;62188;35.640;139.748;2023-04-23T07:51:48;101716.72;;;19.55;17.59
64115;BME280;62188;35.640;139.748;2023-04-23T07:54:13;101709.39;;;19.61;17.41
64115;BME280;62188;35.640;139.748;2023-04-23T07:56:39;101710.91;;;19.71;17.25
64115;BME280;62188;35.640;139.748;2023-04-23T07:59:04;101710.70;;;19.57;17.31
64115;BME280;62188;35.640;139.748;2023-04-23T08:01:31;101712.54;;;19.88;17.27
64115;BME280;62188;35.640;139.748;2023-04-23T08:03:56;101708.69;;;19.43;17.34
64115;BME280;62188;35.640;139.748;2023-04-23T08:06:21;101710.07;;;19.48;17.68
64115;BME280;62188;35.640;139.748;2023-04-23T08:08:47;101709.03;;;19.50;18.17
64115;BME280;62188;35.640;139.748;2023-04-23T08:11:12;101706.86;;;19.54;18.67
64115;BME280;62188;35.640;139.748;2023-04-23T08:13:37;101713.70;;;19.72;18.85
64115;BME280;62188;35.640;139.748;2023-04-23T08:16:03;101717.50;;;19.72;19.33
64115;BME280;62188;35.640;139.748;2023-04-23T08:18:29;101720.82;;;19.51;19.91
64115;BME280;62188;35.640;139.748;2023-04-23T08:20:55;101712.40;;;19.55;20.34
64115;BME280;62188;35.640;139.748;2023-04-23T08:23:20;101715.16;;;19.68;20.54
64115;BME280;62188;35.640;139.748;2023-04-23T08:25:45;101713.45;;;19.67;21.16
64115;BME280;62188;35.640;139.748;2023-04-23T08:28:11;101711.92;;;19.68;21.38
64115;BME280;62188;35.640;139.748;2023-04-23T08:30:36;101710.81;;;19.58;21.80
64115;BME280;62188;35.640;139.748;2023-04-23T08:33:02;101713.16;;;19.67;21.92
64115;BME280;62188;35.640;139.748;2023-04-23T08:35:27;101714.13;;;19.42;21.90
64115;BME280;62188;35.640;139.748;2023-04-23T08:37:53;101720.18;;;19.35;21.99
64115;BME280;62188;35.640;139.748;2023-04-23T08:40:19;101723.90;;;19.41;21.90
64115;BME280;62188;35.640;139.748;2023-04-23T08:42:49;101731.29;;;19.49;21.85
64115;BME280;62188;35.640;139.748;2023-04-23T08:45:11;101730.86;;;19.31;21.98
64115;BME280;62188;35.640;139.748;2023-04-23T08:47:36;101730.01;;;19.10;22.19
64115;BME280;62188;35.640;139.748;2023-04-23T08:50:02;101736.22;;;19.16;22.28
64115;BME280;62188;35.640;139.748;2023-04-23T08:52:31;101735.00;;;19.15;22.42
64115;BME280;62188;35.640;139.748;2023-04-23T08:55:00;101742.11;;;19.11;22.56
64115;BME280;62188;35.640;139.748;2023-04-23T08:57:18;101742.32;;;18.96;22.83
64115;BME280;62188;35.640;139.748;2023-04-23T08:59:44;101743.41;;;19.12;22.79
64115;BME280;62188;35.640;139.748;2023-04-23T09:02:09;101741.51;;;19.05;22.72
64115;BME280;62188;35.640;139.748;2023-04-23T09:04:34;101740.93;;;19.49;22.63
64115;BME280;62188;35.640;139.748;2023-04-23T09:07:00;101745.83;;;19.53;22.82
64115;BME280;62188;35.640;139.748;2023-04-23T09:09:27;101744.07;;;19.63;22.88
64115;BME280;62188;35.640;139.748;2023-04-23T09:11:51;101743.87;;;19.63;23.13
64115;BME280;62188;35.640;139.748;2023-04-23T09:14:16;101750.72;;;19.70;23.27
64115;BME280;62188;35.640;139.748;2023-04-23T09:16:42;101753.67;;;19.62;23.17
64115;BME280;62188;35.640;139.748;2023-04-23T09:19:09;101760.48;;;19.67;23.27
64115;BME280;62188;35.640;139.748;2023-04-23T09:21:32;101759.17;;;19.60;23.09
64115;BME280;62188;35.640;139.748;2023-04-23T09:23:58;101760.04;;;19.43;23.20
64115;BME280;62188;35.640;139.748;2023-04-23T09:26:24;101761.58;;;19.16;23.31
64115;BME280;62188;35.640;139.748;2023-04-23T09:28:50;101765.38;;;19.40;23.43
64115;BME280;62188;35.640;139.748;2023-04-23T09:31:19;101777.21;;;19.23;23.54
64115;BME280;62188;35.640;139.748;2023-04-23T09:33:40;101778.08;;;18.90;23.69
64115;BME280;62188;35.640;139.748;2023-04-23T09:36:10;101782.65;;;19.01;23.63
64115;BME280;62188;35.640;139.748;2023-04-23T09:38:34;101783.28;;;19.08;23.71
64115;BME280;62188;35.640;139.748;2023-04-23T09:40:57;101791.26;;;18.99;23.66
64115;BME280;62188;35.640;139.748;2023-04-23T09:43:23;101795.53;;;18.98;23.74
64115;BME280;62188;35.640;139.748;2023-04-23T09:45:49;101795.55;;;19.01;24.02
64115;BME280;62188;35.640;139.748;2023-04-23T09:48:23;101796.53;;;19.05;23.83
64115;BME280;62188;35.640;139.748;2023-04-23T09:50:49;101802.18;;;19.16;23.84
64115;BME280;62188;35.640;139.748;2023-04-23T09:53:07;101807.56;;;19.28;24.00
64115;BME280;62188;35.640;139.748;2023-04-23T09:55:32;101811.87;;;19.30;24.10
64115;BME280;62188;35.640;139.748;2023-04-23T09:57:56;101814.32;;;19.17;24.41
64115;BME280;62188;35.640;139.748;2023-04-23T10:00:22;101820.69;;;19.11;24.76
64115;BME280;62188;35.640;139.748;2023-04-23T10:02:49;101835.07;;;18.83;24.87
64115;BME280;62188;35.640;139.748;2023-04-23T10:05:16;101842.22;;;18.85;25.60
64115;BME280;62188;35.640;139.748;2023-04-23T10:07:39;101849.31;;;18.84;26.13
64115;BME280;62188;35.640;139.748;2023-04-23T10:10:05;101855.66;;;18.78;26.61
64115;BME280;62188;35.640;139.748;2023-04-23T10:12:30;101861.25;;;18.71;26.92
64115;BME280;62188;35.640;139.748;2023-04-23T10:15:07;101866.41;;;18.65;27.15
64115;BME280;62188;35.640;139.748;2023-04-23T10:17:21;101877.16;;;18.72;27.14
64115;BME280;62188;35.640;139.748;2023-04-23T10:19:45;101880.32;;;18.98;27.25
64115;BME280;62188;35.640;139.748;2023-04-23T10:22:12;101883.95;;;18.70;27.49
64115;BME280;62188;35.640;139.748;2023-04-23T10:24:39;101891.95;;;18.86;27.47
64115;BME280;62188;35.640;139.748;2023-04-23T10:27:03;101894.96;;;18.90;27.85
64115;BME280;62188;35.640;139.748;2023-04-23T10:29:30;101896.58;;;18.90;27.97
64115;BME280;62188;35.640;139.748;2023-04-23T10:31:53;101895.30;;;18.95;28.14
64115;BME280;62188;35.640;139.748;2023-04-23T10:34:18;101901.46;;;19.07;28.10
64115;BME280;62188;35.640;139.748;2023-04-23T10:36:44;101904.56;;;19.02;28.42
64115;BME280;62188;35.640;139.748;2023-04-23T10:39:09;101908.41;;;19.00;28.50
64115;BME280;62188;35.640;139.748;2023-04-23T10:41:36;101911.37;;;19.03;28.66
64115;BME280;62188;35.640;139.748;2023-04-23T10:44:00;101917.68;;;18.97;29.04
64115;BME280;62188;35.640;139.748;2023-04-23T10:46:30;101918.65;;;18.94;29.24
64115;BME280;62188;35.640;139.748;2023-04-23T10:49:04;101918.30;;;18.90;29.70
64115;BME280;62188;35.640;139.748;2023-04-23T10:51:18;101921.23;;;18.73;30.72
64115;BME280;62188;35.640;139.748;2023-04-23T10:53:44;101925.75;;;18.73;31.29
64115;BME280;62188;35.640;139.748;2023-04-23T10:56:10;101930.97;;;18.39;31.38
64115;BME280;62188;35.640;139.748;2023-04-23T11:01:04;101942.67;;;18.24;31.61
64115;BME280;62188;35.640;139.748;2023-04-23T11:03:36;101947.36;;;18.73;31.73
64115;BME280;62188;35.640;139.748;2023-04-23T11:05:50;101954.80;;;18.83;31.68
64115;BME280;62188;35.640;139.748;2023-04-23T11:08:16;101954.07;;;18.58;31.42
64115;BME280;62188;35.640;139.748;2023-04-23T11:10:54;101952.95;;;19.13;31.51
64115;BME280;62188;35.640;139.748;2023-04-23T11:15:34;101958.94;;;18.79;31.64
64115;BME280;62188;35.640;139.748;2023-04-23T11:18:02;101963.30;;;18.88;31.52
64115;BME280;62188;35.640;139.748;2023-04-23T11:20:24;101964.79;;;18.91;31.55
64115;BME280;62188;35.640;139.748;2023-04-23T11:22:51;101970.17;;;19.00;31.48
64115;BME280;62188;35.640;139.748;2023-04-23T11:25:19;101965.09;;;19.14;31.40
64115;BME280;62188;35.640;139.748;2023-04-23T11:27:41;101969.54;;;19.26;31.43
64115;BME280;62188;35.640;139.748;2023-04-23T11:30:12;101972.11;;;19.22;31.62
64115;BME280;62188;35.640;139.748;2023-04-23T11:32:32;101977.30;;;19.21;31.78
64115;BME280;62188;35.640;139.748;2023-04-23T11:34:58;101984.33;;;19.22;32.00
64115;BME280;62188;35.640;139.748;2023-04-23T11:37:24;101988.57;;;19.03;32.04
64115;BME280;62188;35.640;139.748;2023-04-23T11:39:48;101995.48;;;19.30;31.98
64115;BME280;62188;35.640;139.748;2023-04-23T11:42:15;101997.67;;;19.32;32.02
64115;BME280;62188;35.640;139.748;2023-04-23T11:44:42;101999.34;;;19.21;32.12
64115;BME280;62188;35.640;139.748;2023-04-23T11:47:08;101997.86;;;19.32;32.13
64115;BME280;62188;35.640;139.748;2023-04-23T11:49:30;102003.07;;;19.38;32.08
64115;BME280;62188;35.640;139.748;2023-04-23T11:52:00;102003.27;;;19.45;32.02
64115;BME280;62188;35.640;139.748;2023-04-23T11:54:26;102005.54;;;19.48;32.01
64115;BME280;62188;35.640;139.748;2023-04-23T11:56:48;102005.27;;;19.29;31.96
64115;BME280;62188;35.640;139.748;2023-04-23T11:59:13;101997.50;;;19.48;32.08
64115;BME280;62188;35.640;139.748;2023-04-23T12:01:43;101998.93;;;19.26;32.03
64115;BME280;62188;35.640;139.748;2023-04-23T12:04:09;102003.65;;;19.44;32.11
64115;BME280;62188;35.640;139.748;2023-04-23T12:06:29;102009.15;;;19.42;32.10
64115;BME280;62188;35.640;139.748;2023-04-23T12:08:54;102014.70;;;19.49;32.17
64115;BME280;62188;35.640;139.748;2023-04-23T12:11:19;102014.23;;;19.32;32.23
64115;BME280;62188;35.640;139.748;2023-04-23T12:13:46;102017.86;;;19.63;32.32
64115;BME280;62188;35.640;139.748;2023-04-23T12:16:11;102018.49;;;19.71;32.15
64115;BME280;62188;35.640;139.748;2023-04-23T12:18:40;102020.64;;;19.80;31.69
64115;BME280;62188;35.640;139.748;2023-04-23T12:21:06;102017.60;;;19.62;31.29
64115;BME280;62188;35.640;139.748;2023-04-23T12:23:28;102022.48;;;19.68;31.18
64115;BME280;62188;35.640;139.748;2023-04-23T12:25:54;102017.72;;;19.74;30.85